Time;durP1;ratioP1;P1;durP2;ratioP2;P2;SDS_P1;SDS_P2;PMS_P1;PMS_P2;Temp;Humidity;BMP_temperature;BMP_pressure;BME280_temperature;BME280_humidity;BME280_pressure;Samples;Min_cycle;Max_cycle;Signal;HPM_P1;HPM_P2
2022/08/31 00:04:01;;;;;;;5.90;1.90;;;15.20;99.90;;;;;;5098013;28;20506;-93
2022/08/31 00:06:33;;;;;;;4.68;1.58;;;15.10;99.90;;;;;;5091752;22;20143;-93
2022/08/31 00:09:00;;;;;;;6.00;1.83;;;15.20;99.90;;;;;;5055618;28;20043;-93
2022/08/31 00:11:29;;;;;;;3.58;1.50;;;15.10;99.90;;;;;;5056012;28;20106;-93
2022/08/31 00:14:00;;;;;;;5.28;1.60;;;15.10;99.90;;;;;;5055525;28;20048;-93
2022/08/31 00:16:30;;;;;;;5.82;1.77;;;15.50;99.90;;;;;;5055687;28;20044;-94
2022/08/31 00:18:56;;;;;;;4.22;1.40;;;15.70;99.90;;;;;;5056383;28;20083;-94
2022/08/31 00:21:25;;;;;;;5.75;1.70;;;15.20;99.90;;;;;;5075895;28;20091;-93
2022/08/31 00:23:51;;;;;;;4.55;1.50;;;15.40;99.90;;;;;;5055706;28;20088;-94
2022/08/31 00:26:18;;;;;;;4.85;1.63;;;15.10;99.90;;;;;;5058077;28;20037;-94
2022/08/31 00:28:45;;;;;;;5.15;1.70;;;15.10;99.90;;;;;;5056803;28;20048;-94
2022/08/31 00:31:11;;;;;;;4.55;1.50;;;15.10;99.90;;;;;;5075917;28;20277;-94
2022/08/31 00:33:37;;;;;;;3.72;1.48;;;15.00;99.90;;;;;;5077568;28;20071;-94
2022/08/31 00:36:06;;;;;;;5.57;1.63;;;15.00;99.90;;;;;;5064589;28;20099;-93
2022/08/31 00:38:32;;;;;;;4.40;1.40;;;15.00;99.90;;;;;;5054341;28;20041;-94
2022/08/31 00:40:58;;;;;;;2.97;1.38;;;15.00;99.90;;;;;;5073557;28;20472;-94
2022/08/31 00:43:42;;;;;;;2.65;1.38;;;15.50;99.90;;;;;;5069267;28;20135;-94
2022/08/31 00:46:11;;;;;;;5.35;1.27;;;14.90;99.90;;;;;;5082581;28;20052;-94
2022/08/31 00:48:44;;;;;;;4.43;1.50;;;15.50;99.90;;;;;;5073925;28;20054;-94
2022/08/31 00:51:10;;;;;;;;;;;14.90;99.90;;;;;;5059994;28;20404;-93
2022/08/31 00:53:37;;;;;;;3.67;1.45;;;14.90;99.90;;;;;;5073262;28;19927;-94
2022/08/31 00:56:03;;;;;;;5.38;1.50;;;14.90;99.90;;;;;;5055308;28;20048;-95
2022/08/31 00:58:29;;;;;;;4.63;1.50;;;15.60;99.90;;;;;;5055825;28;20036;-94
2022/08/31 01:00:57;;;;;;;4.63;1.33;;;14.80;99.90;;;;;;5072810;28;20048;-94
2022/08/31 01:03:23;;;;;;;6.93;1.50;;;14.80;99.90;;;;;;5055127;28;20041;-95
2022/08/31 01:05:49;;;;;;;4.65;1.40;;;15.40;99.90;;;;;;5073616;28;20068;-94
2022/08/31 01:08:15;;;;;;;3.80;1.33;;;14.80;99.90;;;;;;5076771;28;20503;-94
2022/08/31 01:10:45;;;;;;;5.47;1.50;;;14.70;99.90;;;;;;5073298;28;20404;-95
2022/08/31 01:13:12;;;;;;;6.35;1.40;;;14.60;99.90;;;;;;5054877;28;20484;-94
2022/08/31 01:15:44;;;;;;;3.10;1.33;;;14.60;99.90;;;;;;5054854;28;20052;-94
2022/08/31 01:18:10;;;;;;;4.13;1.60;;;14.50;99.90;;;;;;5072687;28;20115;-94
2022/08/31 01:20:50;;;;;;;3.65;1.33;;;14.50;99.90;;;;;;5072860;28;20044;-95
2022/08/31 01:23:27;;;;;;;5.00;1.40;;;14.40;99.90;;;;;;5055070;28;20059;-94
2022/08/31 01:25:55;;;;;;;4.03;1.40;;;14.30;99.90;;;;;;5057927;28;20044;-94
2022/08/31 01:28:22;;;;;;;4.82;1.40;;;14.90;99.90;;;;;;5058373;28;20060;-95
2022/08/31 01:31:01;;;;;;;4.00;1.45;;;14.30;99.90;;;;;;5076983;28;20047;-94
2022/08/31 01:33:28;;;;;;;4.38;1.50;;;14.20;99.90;;;;;;5060863;28;20051;-94
2022/08/31 01:35:55;;;;;;;4.53;1.50;;;14.20;99.90;;;;;;5058928;28;20048;-94
2022/08/31 01:38:21;;;;;;;4.75;1.50;;;14.10;99.90;;;;;;5076624;28;20119;-94
2022/08/31 01:41:00;;;;;;;3.83;1.42;;;14.00;99.90;;;;;;5058566;28;20083;-95
2022/08/31 01:43:27;;;;;;;4.60;1.45;;;14.00;99.90;;;;;;5075244;28;20456;-94
2022/08/31 01:45:52;;;;;;;3.53;1.30;;;13.90;99.90;;;;;;5058647;28;20113;-94
2022/08/31 01:48:18;;;;;;;4.70;1.48;;;13.90;99.90;;;;;;5076151;28;20041;-95
2022/08/31 01:50:44;;;;;;;6.10;1.50;;;13.80;99.90;;;;;;5058202;28;20098;-95
2022/08/31 01:53:10;;;;;;;3.60;1.40;;;13.80;99.90;;;;;;5058401;28;20501;-94
2022/08/31 01:55:37;;;;;;;3.75;1.50;;;13.70;99.90;;;;;;5075850;28;20041;-94
2022/08/31 01:58:04;;;;;;;5.28;1.40;;;13.60;99.90;;;;;;5058074;28;20045;-94
2022/08/31 02:00:30;;;;;;;3.30;1.25;;;13.60;99.90;;;;;;5075213;28;20120;-95
2022/08/31 02:03:01;;;;;;;4.43;1.38;;;13.60;99.90;;;;;;5075823;28;20102;-94
2022/08/31 02:05:27;;;;;;;2.45;1.20;;;13.60;99.90;;;;;;5074656;28;20147;-94
2022/08/31 02:07:54;;;;;;;2.78;1.27;;;13.50;99.90;;;;;;5057212;28;20569;-94
2022/08/31 02:10:19;;;;;;;2.83;1.23;;;13.50;99.90;;;;;;5077484;28;20047;-94
2022/08/31 02:12:45;;;;;;;4.05;1.40;;;13.40;99.90;;;;;;5078880;28;20048;-94
2022/08/31 02:15:11;;;;;;;3.90;1.40;;;13.40;99.90;;;;;;5075838;28;20693;-94
2022/08/31 02:17:37;;;;;;;3.53;1.20;;;13.40;99.90;;;;;;5057286;28;20057;-94
2022/08/31 02:20:05;;;;;;;4.38;1.40;;;13.30;99.90;;;;;;5078549;28;20068;-94
2022/08/31 02:22:31;;;;;;;4.20;1.35;;;13.30;99.90;;;;;;5057898;28;20055;-95
2022/08/31 02:24:57;;;;;;;3.03;1.30;;;13.30;99.90;;;;;;5076973;28;20036;-95
2022/08/31 02:27:23;;;;;;;3.05;1.20;;;13.20;99.90;;;;;;5077450;28;20036;-95
2022/08/31 02:29:49;;;;;;;5.25;1.42;;;13.20;99.90;;;;;;5075666;28;20052;-94
2022/08/31 02:32:15;;;;;;;4.10;1.30;;;13.10;99.90;;;;;;5057484;28;20119;-94
2022/08/31 02:34:40;;;;;;;3.47;1.20;;;13.10;99.90;;;;;;5075682;28;20072;-95
2022/08/31 02:37:07;;;;;;;4.95;1.38;;;13.10;99.90;;;;;;5058850;28;20444;-94
2022/08/31 02:39:32;;;;;;;2.45;1.30;;;13.00;99.90;;;;;;5061191;28;20041;-94
2022/08/31 02:41:58;;;;;;;2.78;1.25;;;13.00;99.90;;;;;;5064740;28;20047;-94
2022/08/31 02:44:24;;;;;;;2.75;1.10;;;13.00;99.90;;;;;;5058604;28;20491;-94
2022/08/31 02:46:49;;;;;;;1.75;1.08;;;12.90;99.90;;;;;;5069311;28;20028;-95
2022/08/31 02:49:15;;;;;;;3.97;1.30;;;12.90;99.90;;;;;;5071738;28;20411;-94
2022/08/31 02:51:42;;;;;;;4.95;1.30;;;12.80;99.90;;;;;;5057765;28;20125;-95
2022/08/31 02:54:07;;;;;;;2.78;1.15;;;12.80;99.90;;;;;;5057306;28;20061;-94
2022/08/31 02:56:33;;;;;;;4.20;1.48;;;12.70;99.90;;;;;;5056614;28;20211;-94
2022/08/31 02:58:59;;;;;;;3.00;1.30;;;12.70;99.90;;;;;;5074567;28;20056;-94
2022/08/31 03:01:25;;;;;;;3.25;1.30;;;12.60;99.90;;;;;;5056614;28;20045;-94
2022/08/31 03:03:51;;;;;;;2.58;1.10;;;12.80;99.90;;;;;;5074683;28;20052;-95
2022/08/31 03:06:18;;;;;;;4.40;1.30;;;12.60;99.90;;;;;;5055987;28;20053;-94
2022/08/31 03:08:44;;;;;;;2.38;1.20;;;13.30;99.90;;;;;;5056763;28;20048;-94
2022/08/31 03:11:11;;;;;;;3.17;1.20;;;12.50;99.90;;;;;;5056280;28;20036;-94
2022/08/31 03:13:38;;;;;;;3.30;1.30;;;12.50;99.90;;;;;;5056909;28;20053;-94
2022/08/31 03:16:05;;;;;;;2.67;1.13;;;12.40;99.90;;;;;;5056961;28;20104;-94
2022/08/31 03:18:31;;;;;;;3.28;1.35;;;12.40;99.90;;;;;;5056071;28;20052;-95
2022/08/31 03:20:56;;;;;;;4.13;1.40;;;12.30;99.90;;;;;;5057010;28;20435;-95
2022/08/31 03:23:22;;;;;;;4.28;1.33;;;12.30;99.90;;;;;;5056693;28;20052;-94
2022/08/31 03:25:47;;;;;;;4.00;1.48;;;12.20;99.90;;;;;;5056655;28;20495;-94
2022/08/31 03:28:14;;;;;;;4.40;1.50;;;12.20;99.90;;;;;;5056720;28;20407;-95
2022/08/31 03:30:41;;;;;;;3.95;1.40;;;12.10;99.90;;;;;;5039831;28;20040;-95
2022/08/31 03:33:07;;;;;;;5.15;1.50;;;12.10;99.90;;;;;;5056129;28;20048;-94
2022/08/31 03:35:33;;;;;;;3.45;1.40;;;12.00;99.90;;;;;;5073593;28;20167;-95
2022/08/31 03:38:01;;;;;;;6.00;1.50;;;12.00;99.90;;;;;;5056571;28;20046;-95
2022/08/31 03:40:27;;;;;;;5.90;1.77;;;11.90;99.90;;;;;;5073831;28;20123;-94
2022/08/31 03:42:52;;;;;;;3.67;1.35;;;11.90;99.90;;;;;;5056830;28;20127;-95
2022/08/31 03:45:18;;;;;;;5.95;1.70;;;11.80;99.90;;;;;;5060286;28;20194;-95
2022/08/31 03:47:44;;;;;;;4.05;1.50;;;12.20;99.90;;;;;;5055420;28;20045;-94
2022/08/31 03:50:10;;;;;;;4.10;1.48;;;11.70;99.90;;;;;;5055449;28;20048;-95
2022/08/31 03:52:37;;;;;;;3.65;1.48;;;11.70;99.90;;;;;;5074201;28;20048;-94
2022/08/31 03:55:04;;;;;;;4.53;1.70;;;11.70;99.90;;;;;;5074103;28;20502;-94
2022/08/31 03:57:29;;;;;;;5.50;1.42;;;11.60;99.90;;;;;;5060806;28;20076;-94
2022/08/31 03:59:56;;;;;;;4.93;1.60;;;11.60;99.90;;;;;;5081074;28;20044;-95
2022/08/31 04:02:23;;;;;;;4.07;1.40;;;11.50;99.90;;;;;;5073282;28;20033;-93
2022/08/31 04:04:52;;;;;;;5.05;1.60;;;11.50;99.90;;;;;;5070685;28;20056;-94
2022/08/31 04:07:19;;;;;;;3.75;1.52;;;11.40;99.90;;;;;;5061526;28;20047;-94
2022/08/31 04:09:46;;;;;;;5.90;1.70;;;11.40;99.90;;;;;;5060551;28;20036;-95
2022/08/31 04:12:15;;;;;;;4.47;1.65;;;11.30;99.90;;;;;;5074209;28;20127;-95
2022/08/31 04:14:41;;;;;;;4.32;1.58;;;11.30;99.90;;;;;;5055900;28;20055;-94
2022/08/31 04:17:09;;;;;;;6.15;1.70;;;11.30;99.90;;;;;;5056613;28;20034;-96
2022/08/31 04:19:35;;;;;;;4.60;1.60;;;11.20;99.90;;;;;;5076750;28;20040;-95
2022/08/31 04:22:01;;;;;;;4.72;1.60;;;11.20;99.90;;;;;;5055533;28;20147;-95
2022/08/31 04:24:26;;;;;;;5.22;1.73;;;11.20;99.90;;;;;;5055630;28;20047;-94
2022/08/31 04:26:52;;;;;;;4.35;1.63;;;11.20;99.90;;;;;;5073678;28;20040;-94
2022/08/31 04:29:17;;;;;;;6.20;1.80;;;11.10;99.90;;;;;;5073218;28;20041;-95
2022/08/31 04:31:43;;;;;;;4.22;1.52;;;11.10;99.90;;;;;;5055674;28;20131;-94
2022/08/31 04:34:09;;;;;;;4.50;1.63;;;11.10;99.90;;;;;;5073912;28;20043;-95
2022/08/31 04:36:36;;;;;;;4.82;1.63;;;11.00;99.90;;;;;;5055793;28;20040;-95
2022/08/31 04:39:04;;;;;;;5.43;1.70;;;11.00;99.90;;;;;;5056043;28;20040;-94
2022/08/31 04:41:32;;;;;;;4.88;1.55;;;11.00;99.90;;;;;;5056281;28;20045;-94
2022/08/31 04:43:59;;;;;;;5.88;1.63;;;11.00;99.90;;;;;;5056260;28;20469;-94
2022/08/31 04:46:26;;;;;;;6.20;1.95;;;11.00;99.90;;;;;;5074530;28;20376;-95
2022/08/31 04:48:52;;;;;;;7.10;1.70;;;11.00;99.90;;;;;;5074219;28;20516;-94
2022/08/31 04:51:24;;;;;;;4.78;1.67;;;10.90;99.90;;;;;;5056223;28;20071;-94
2022/08/31 04:53:51;;;;;;;4.40;1.83;;;10.90;99.90;;;;;;5057708;28;20503;-95
2022/08/31 04:56:26;;;;;;;6.50;1.80;;;10.90;99.90;;;;;;5060299;28;20106;-95
2022/08/31 04:58:57;;;;;;;8.07;1.90;;;10.90;99.90;;;;;;5076386;28;20062;-95
2022/08/31 05:01:26;;;;;;;6.40;1.98;;;10.90;99.90;;;;;;5081466;28;20079;-94
2022/08/31 05:03:52;;;;;;;5.32;1.90;;;10.90;99.90;;;;;;5062968;28;20144;-93
2022/08/31 05:06:21;;;;;;;6.50;1.90;;;10.90;99.90;;;;;;5059837;28;20117;-94
2022/08/31 05:08:46;;;;;;;5.65;2.00;;;10.90;99.90;;;;;;5059323;28;20131;-93
2022/08/31 05:11:15;;;;;;;6.57;1.80;;;10.90;99.90;;;;;;5077836;28;20126;-94
2022/08/31 05:13:41;;;;;;;5.28;1.80;;;10.90;99.90;;;;;;5059638;28;20045;-94
2022/08/31 05:16:09;;;;;;;5.68;1.70;;;10.90;99.90;;;;;;5060018;28;20051;-95
2022/08/31 05:18:36;;;;;;;5.88;1.80;;;11.00;99.90;;;;;;5059444;28;20041;-94
2022/08/31 05:21:10;;;;;;;10.90;2.45;;;11.00;99.90;;;;;;5060272;28;20036;-94
2022/08/31 05:23:36;;;;;;;7.07;1.90;;;10.90;99.90;;;;;;5058981;28;20052;-94
2022/08/31 05:26:02;;;;;;;5.82;1.95;;;11.00;99.90;;;;;;5062353;28;20400;-94
2022/08/31 05:28:28;;;;;;;6.57;1.85;;;11.00;99.90;;;;;;5059615;28;20083;-94
2022/08/31 05:30:53;;;;;;;5.93;1.80;;;11.00;99.90;;;;;;5058552;28;20040;-95
2022/08/31 05:33:19;;;;;;;7.03;1.80;;;11.00;99.90;;;;;;5058293;28;20041;-94
2022/08/31 05:35:46;;;;;;;6.07;1.77;;;11.00;99.90;;;;;;5058872;28;20041;-95
2022/08/31 05:38:12;;;;;;;6.38;2.67;;;11.00;99.90;;;;;;5059022;28;20048;-94
2022/08/31 05:40:38;;;;;;;6.38;2.00;;;11.00;99.90;;;;;;5056567;28;20101;-89
2022/08/31 05:43:03;;;;;;;6.32;1.90;;;11.10;99.90;;;;;;5077396;28;20477;-92
2022/08/31 05:45:29;;;;;;;5.70;1.80;;;11.10;99.90;;;;;;5061794;28;20048;-89
2022/08/31 05:47:55;;;;;;;7.50;2.00;;;11.10;99.90;;;;;;5057087;28;20048;-90
2022/08/31 05:50:20;;;;;;;6.47;2.00;;;11.20;99.90;;;;;;5075445;28;20040;-87
2022/08/31 05:52:46;;;;;;;5.90;1.90;;;11.20;99.90;;;;;;5057935;28;20137;-89
2022/08/31 05:55:12;;;;;;;5.25;1.90;;;11.20;99.90;;;;;;5075126;28;20068;-89
2022/08/31 05:57:39;;;;;;;5.97;1.90;;;11.30;99.90;;;;;;5074940;28;20044;-88
2022/08/31 06:00:09;;;;;;;4.82;1.80;;;11.30;99.90;;;;;;5058089;28;20090;-91
2022/08/31 06:02:36;;;;;;;6.05;1.90;;;11.30;99.90;;;;;;5077057;28;20045;-90
2022/08/31 06:05:02;;;;;;;6.80;2.10;;;11.40;99.90;;;;;;5056784;28;20056;-86
2022/08/31 06:07:28;;;;;;;6.85;2.10;;;11.40;99.90;;;;;;5074463;28;20051;-89
2022/08/31 06:09:53;;;;;;;5.57;1.90;;;11.50;99.90;;;;;;5057572;28;20052;-91
2022/08/31 06:12:21;;;;;;;9.20;2.20;;;11.50;99.90;;;;;;5056710;28;20132;-85
2022/08/31 06:14:47;;;;;;;8.63;2.83;;;11.60;99.90;;;;;;5053955;28;20503;-85
2022/08/31 06:17:15;;;;;;;7.88;3.22;;;11.70;99.90;;;;;;5056180;28;20041;-86
2022/08/31 06:19:40;;;;;;;6.45;2.30;;;11.80;99.90;;;;;;5040403;28;20053;-86
2022/08/31 06:22:06;;;;;;;6.40;2.10;;;11.90;99.90;;;;;;5077857;28;20389;-86
2022/08/31 06:24:31;;;;;;;6.63;2.13;;;12.00;99.90;;;;;;5056158;28;20048;-85
2022/08/31 06:26:58;;;;;;;7.07;2.10;;;12.00;99.90;;;;;;5056821;28;20074;-85
2022/08/31 06:29:25;;;;;;;10.15;2.67;;;12.10;99.90;;;;;;5073556;28;20052;-86
2022/08/31 06:31:51;;;;;;;6.70;2.30;;;12.10;99.90;;;;;;5074525;28;20106;-85
2022/08/31 06:34:18;;;;;;;6.80;2.30;;;12.20;99.90;;;;;;5056366;28;20430;-85
2022/08/31 06:36:44;;;;;;;8.55;2.33;;;12.20;99.90;;;;;;5055733;28;20055;-86
2022/08/31 06:39:11;;;;;;;7.22;2.30;;;12.30;99.90;;;;;;5074206;28;20036;-86
2022/08/31 06:41:38;;;;;;;6.47;2.33;;;12.90;99.90;;;;;;5074227;28;20052;-86
2022/08/31 06:44:06;;;;;;;9.55;2.80;;;12.50;99.90;;;;;;5055750;28;20048;-86
2022/08/31 06:46:33;;;;;;;8.05;2.47;;;12.60;99.90;;;;;;5056187;28;20146;-86
2022/08/31 06:48:59;;;;;;;7.15;2.40;;;12.60;99.90;;;;;;5074177;28;20052;-86
2022/08/31 06:51:25;;;;;;;7.70;2.30;;;12.80;99.90;;;;;;5055450;28;20086;-86
2022/08/31 06:53:52;;;;;;;7.07;2.50;;;12.80;99.90;;;;;;5055753;28;20396;-85
2022/08/31 06:56:21;;;;;;;6.32;2.38;;;12.90;99.90;;;;;;5072593;28;20481;-85
2022/08/31 06:58:48;;;;;;;7.22;2.30;;;13.00;99.90;;;;;;5055809;28;20082;-85
2022/08/31 07:01:17;;;;;;;6.70;2.25;;;13.20;99.90;;;;;;5073114;28;20476;-86
2022/08/31 07:03:44;;;;;;;8.73;2.45;;;13.30;99.90;;;;;;5055066;28;20056;-86
2022/08/31 07:06:16;;;;;;;7.35;2.17;;;13.50;99.90;;;;;;5055318;28;20057;-86
2022/08/31 07:08:43;;;;;;;7.07;2.13;;;13.70;99.90;;;;;;5073803;28;20044;-86
2022/08/31 07:11:19;;;;;;;5.68;1.98;;;13.90;99.90;;;;;;5054947;28;20488;-86
2022/08/31 07:13:46;;;;;;;6.78;2.25;;;14.00;99.90;;;;;;5055932;28;20506;-84
2022/08/31 07:16:14;;;;;;;5.47;1.88;;;14.20;99.90;;;;;;5055746;28;20492;-83
2022/08/31 07:18:41;;;;;;;5.60;1.77;;;14.30;99.90;;;;;;5054926;28;20431;-85
2022/08/31 07:21:18;;;;;;;6.88;2.00;;;14.50;99.90;;;;;;5056201;28;20504;-85
2022/08/31 07:23:45;;;;;;;6.65;1.90;;;14.60;99.90;;;;;;5052641;28;20488;-85
2022/08/31 07:26:33;;;;;;;5.20;1.83;;;14.70;99.90;;;;;;5034411;28;20053;-85
2022/08/31 07:29:00;;;;;;;5.07;1.70;;;15.40;99.90;;;;;;5052357;28;20135;-85
2022/08/31 07:31:47;;;;;;;7.07;1.80;;;15.00;99.90;;;;;;5034143;28;20127;-85
2022/08/31 07:34:18;;;;;;;6.63;1.80;;;15.00;99.90;;;;;;5036329;28;20099;-84
2022/08/31 07:42:17;;;;;;;5.55;1.70;;;15.00;99.90;;;;;;5054679;28;20053;-86
2022/08/31 07:44:47;;;;;;;6.38;1.70;;;15.20;99.90;;;;;;5055156;28;20067;-85
2022/08/31 07:47:18;;;;;;;6.25;2.00;;;15.30;99.90;;;;;;5053861;28;20083;-85
2022/08/31 07:49:47;;;;;;;5.35;1.70;;;15.40;99.90;;;;;;5073054;28;20044;-86
2022/08/31 07:52:22;;;;;;;5.70;1.70;;;15.50;99.90;;;;;;5050038;28;20053;-87
2022/08/31 07:54:49;;;;;;;4.75;1.60;;;15.60;99.90;;;;;;5043573;28;20091;-85
2022/08/31 07:57:17;;;;;;;4.93;1.60;;;15.60;99.90;;;;;;5041477;28;20080;-85
2022/08/31 07:59:42;;;;;;;5.60;1.52;;;16.40;99.90;;;;;;5050345;28;20041;-86
2022/08/31 08:02:08;;;;;;;6.93;1.58;;;15.80;99.90;;;;;;5048278;28;20044;-87
2022/08/31 08:04:38;;;;;;;5.13;1.60;;;16.10;99.90;;;;;;5053129;28;20071;-87
2022/08/31 08:07:07;;;;;;;5.60;1.60;;;16.50;99.90;;;;;;5051395;28;20477;-83
2022/08/31 08:09:32;;;;;;;4.20;1.40;;;17.30;99.90;;;;;;5049985;28;20393;-86
2022/08/31 08:12:05;;;;;;;5.38;1.50;;;16.70;99.90;;;;;;5014925;28;20086;-86
2022/08/31 08:14:57;;;;;;;4.38;1.50;;;16.50;99.90;;;;;;5032098;28;20532;-86
2022/08/31 08:17:47;;;;;;;3.35;1.40;;;17.40;99.90;;;;;;5014845;28;20038;-85
2022/08/31 08:20:12;;;;;;;4.78;1.50;;;16.60;99.90;;;;;;5014754;28;20085;-85
2022/08/31 08:22:44;;;;;;;4.13;1.52;;;17.80;99.90;;;;;;5014518;28;20088;-85
2022/08/31 08:25:11;;;;;;;4.53;1.38;;;17.80;99.90;;;;;;5021607;28;20042;-86
2022/08/31 08:27:53;;;;;;;5.28;1.55;;;17.70;99.90;;;;;;5013446;28;20046;-86
2022/08/31 08:30:18;;;;;;;3.75;1.35;;;17.20;99.90;;;;;;5095387;22;20053;-87
2022/08/31 08:32:51;;;;;;;4.72;1.50;;;17.20;99.90;;;;;;5092607;28;20047;-86
2022/08/31 08:35:16;;;;;;;5.93;1.58;;;18.30;99.90;;;;;;5090384;28;20058;-85
2022/08/31 08:37:46;;;;;;;3.85;1.40;;;17.40;99.90;;;;;;5078305;28;20139;-87
2022/08/31 08:40:56;;;;;;;4.60;1.30;;;18.20;99.90;;;;;;5093426;28;20466;-86
2022/08/31 08:43:31;;;;;;;3.67;1.20;;;17.50;99.90;;;;;;5076143;28;20173;-86
2022/08/31 08:45:57;;;;;;;5.35;1.42;;;17.70;99.90;;;;;;5078694;28;20040;-86
2022/08/31 08:48:38;;;;;;;3.58;1.40;;;18.60;99.90;;;;;;5077364;28;20048;-86
2022/08/31 08:51:19;;;;;;;5.75;1.50;;;17.80;99.90;;;;;;5096392;28;20039;-86
2022/08/31 08:53:50;;;;;;;7.32;1.55;;;17.90;99.90;;;;;;5096928;28;20076;-86
2022/08/31 08:56:31;;;;;;;3.85;1.40;;;18.00;99.90;;;;;;5095904;28;20047;-86
2022/08/31 08:58:56;;;;;;;5.00;1.30;;;19.10;99.90;;;;;;5078152;28;20097;-86
2022/08/31 09:02:13;;;;;;;5.07;1.40;;;19.10;99.90;;;;;;5078999;28;20388;-86
2022/08/31 09:04:42;;;;;;;3.35;1.35;;;18.20;99.90;;;;;;5077556;28;20606;-90
2022/08/31 09:07:55;;;;;;;3.17;1.20;;;19.30;99.90;;;;;;5071214;28;20040;-84
2022/08/31 09:10:40;;;;;;;6.00;1.48;;;18.60;99.90;;;;;;5072201;28;20048;-85
2022/08/31 09:13:19;;;;;;;4.32;1.50;;;18.60;99.90;;;;;;5068389;28;20071;-85
2022/08/31 09:16:21;;;;;;;3.13;1.30;;;19.50;99.90;;;;;;5078830;28;20045;-85
2022/08/31 09:19:01;;;;;;;2.65;1.30;;;18.40;99.90;;;;;;5076214;28;20399;-85
2022/08/31 09:21:33;;;;;;;4.15;1.45;;;18.70;99.90;;;;;;5077156;28;20048;-85
2022/08/31 09:24:13;;;;;;;5.05;1.60;;;19.40;99.90;;;;;;5075955;28;20052;-85
2022/08/31 09:27:16;;;;;;;7.95;1.60;;;19.10;99.90;;;;;;5077317;28;20047;-86
2022/08/31 09:29:45;;;;;;;3.30;1.30;;;19.10;99.90;;;;;;5089481;22;20454;-86
2022/08/31 09:32:22;;;;;;;3.08;1.30;;;19.30;99.90;;;;;;5095484;28;20047;-88
2022/08/31 09:35:00;;;;;;;3.85;1.48;;;19.30;99.90;;;;;;5078619;28;20130;-87
2022/08/31 09:37:39;;;;;;;7.15;1.60;;;20.00;99.90;;;;;;5077598;28;20510;-87
2022/08/31 09:40:51;;;;;;;5.03;1.50;;;19.70;99.90;;;;;;5094780;28;20048;-86
2022/08/31 09:43:36;;;;;;;7.28;2.00;;;19.70;99.90;;;;;;5077007;28;20042;-88
2022/08/31 09:46:08;;;;;;;5.07;1.38;;;19.80;99.90;;;;;;5094912;28;20043;-83
2022/08/31 09:48:58;;;;;;;4.65;1.40;;;19.90;99.90;;;;;;5092924;28;20055;-85
2022/08/31 09:51:33;;;;;;;4.88;1.55;;;20.00;99.90;;;;;;5095287;28;20510;-86
2022/08/31 09:56:58;;;;;;;4.43;1.40;;;20.10;99.90;;;;;;5095519;28;20044;-85
2022/08/31 09:59:50;;;;;;;4.70;1.65;;;20.70;99.90;;;;;;5076302;28;20055;-85
2022/08/31 10:02:21;;;;;;;4.82;1.23;;;20.20;99.70;;;;;;5069675;28;20067;-87
2022/08/31 10:05:31;;;;;;;8.73;2.20;;;20.40;99.90;;;;;;5077215;28;20052;-91
2022/08/31 10:08:05;;;;;;;4.32;1.30;;;20.50;99.50;;;;;;5094777;28;20047;-86
2022/08/31 10:10:38;;;;;;;3.78;1.40;;;20.50;99.90;;;;;;5095024;28;20036;-84
2022/08/31 10:13:09;;;;;;;5.55;1.40;;;20.60;99.10;;;;;;5095080;28;20044;-84
2022/08/31 10:15:59;;;;;;;5.25;1.40;;;20.70;99.80;;;;;;5094848;28;20047;-83
2022/08/31 10:18:49;;;;;;;3.03;1.40;;;21.00;98.50;;;;;;5076740;28;20079;-84
2022/08/31 10:21:47;;;;;;;3.58;1.30;;;21.20;98.60;;;;;;5075658;28;20044;-84
2022/08/31 10:24:37;;;;;;;5.38;1.42;;;21.40;97.90;;;;;;5077007;28;20153;-90
2022/08/31 10:27:13;;;;;;;5.45;1.48;;;21.50;97.30;;;;;;5076994;28;20065;-88
2022/08/31 10:29:54;;;;;;;5.38;1.55;;;21.50;96.90;;;;;;5076696;28;20101;-85
2022/08/31 10:32:41;;;;;;;5.00;1.45;;;21.50;97.20;;;;;;5093968;28;20048;-79
2022/08/31 10:35:21;;;;;;;4.63;1.50;;;21.70;96.10;;;;;;5069577;28;20055;-84
2022/08/31 10:38:22;;;;;;;4.10;1.48;;;21.80;95.60;;;;;;5088939;28;20055;-81
2022/08/31 10:41:00;;;;;;;6.15;1.60;;;21.90;95.10;;;;;;5076638;28;20051;-81
2022/08/31 10:43:49;;;;;;;5.40;1.60;;;22.10;95.40;;;;;;5093279;28;20487;-88
2022/08/31 10:46:15;;;;;;;6.45;1.67;;;22.20;95.50;;;;;;5094219;28;20047;-90
2022/08/31 10:48:45;;;;;;;5.82;1.40;;;22.40;95.70;;;;;;5075969;28;20040;-89
2022/08/31 10:51:33;;;;;;;4.50;1.50;;;22.50;95.80;;;;;;5094773;28;20051;-90
2022/08/31 10:54:27;;;;;;;3.78;1.40;;;22.70;95.40;;;;;;5078892;28;20075;-93
2022/08/31 10:57:02;;;;;;;5.97;1.55;;;22.80;94.40;;;;;;5095902;28;20040;-94
2022/08/31 11:00:01;;;;;;;6.45;1.50;;;23.00;93.90;;;;;;5076122;28;20048;-94
2022/08/31 11:02:27;;;;;;;4.78;1.48;;;23.00;93.30;;;;;;5079873;28;20101;-93
2022/08/31 11:05:28;;;;;;;4.10;1.50;;;22.90;94.10;;;;;;5076753;28;20048;-86
2022/08/31 11:08:11;;;;;;;5.03;1.40;;;23.00;94.00;;;;;;5078608;28;20048;-90
2022/08/31 11:10:48;;;;;;;4.90;1.50;;;23.10;93.80;;;;;;5096264;28;20047;-92
2022/08/31 11:13:37;;;;;;;4.25;1.40;;;23.10;92.90;;;;;;5076091;28;20048;-92
2022/08/31 11:16:31;;;;;;;3.47;1.25;;;23.00;93.20;;;;;;5076376;28;20047;-90
2022/08/31 11:19:10;;;;;;;4.43;1.50;;;23.20;92.80;;;;;;5076049;28;20130;-89
2022/08/31 11:21:52;;;;;;;3.60;1.40;;;23.30;92.70;;;;;;5075634;28;20051;-91
2022/08/31 11:24:42;;;;;;;5.93;1.60;;;23.50;93.40;;;;;;5093196;28;20122;-92
2022/08/31 11:27:21;;;;;;;5.07;1.42;;;23.60;92.50;;;;;;5073157;28;20278;-87
2022/08/31 11:30:01;;;;;;;5.18;1.40;;;23.60;92.10;;;;;;5066295;28;20044;-88
2022/08/31 11:32:46;;;;;;;4.28;1.40;;;24.20;92.30;;;;;;5070099;28;20036;-89
2022/08/31 11:35:13;;;;;;;2.25;1.20;;;23.80;92.50;;;;;;5067654;28;20058;-90
2022/08/31 11:37:51;;;;;;;6.05;1.50;;;23.90;92.30;;;;;;5082411;28;20407;-88
2022/08/31 11:40:42;;;;;;;5.47;1.58;;;24.00;91.30;;;;;;5064427;28;20464;-90
2022/08/31 11:43:30;;;;;;;6.28;1.48;;;24.20;91.60;;;;;;5065823;28;20052;-87
2022/08/31 11:46:00;;;;;;;3.88;1.40;;;24.30;91.40;;;;;;5066493;28;20059;-90
2022/08/31 11:48:52;;;;;;;4.57;1.38;;;24.70;91.60;;;;;;5064642;28;20131;-92
2022/08/31 11:51:39;;;;;;;5.97;1.45;;;24.50;90.70;;;;;;5064487;28;20079;-87
2022/08/31 11:54:25;;;;;;;4.38;1.50;;;24.40;89.40;;;;;;5083514;28;20050;-86
2022/08/31 11:56:53;;;;;;;4.45;1.50;;;24.40;90.00;;;;;;5038241;28;20048;-87
2022/08/31 11:59:30;;;;;;;3.88;1.35;;;24.80;90.00;;;;;;5081345;28;20047;-85
2022/08/31 12:02:02;;;;;;;5.35;1.40;;;24.50;90.00;;;;;;5063826;28;20446;-86
2022/08/31 12:04:42;;;;;;;4.20;1.40;;;24.70;90.40;;;;;;5055779;28;20104;-81
2022/08/31 12:07:09;;;;;;;3.65;1.42;;;25.10;87.50;;;;;;5072279;28;20051;-82
2022/08/31 12:09:54;;;;;;;4.07;1.50;;;24.80;87.60;;;;;;5054388;28;20048;-81
2022/08/31 12:12:42;;;;;;;4.53;1.42;;;24.80;88.80;;;;;;5054432;28;20048;-81
2022/08/31 12:15:22;;;;;;;4.50;1.42;;;25.00;87.80;;;;;;5054744;28;20106;-79
2022/08/31 12:18:30;;;;;;;3.88;1.27;;;25.00;88.40;;;;;;5054968;28;20102;-79
2022/08/31 12:24:08;;;;;;;4.43;1.40;;;25.30;86.50;;;;;;5054665;28;20048;-80
2022/08/31 12:27:03;;;;;;;4.53;1.38;;;25.20;86.10;;;;;;5054506;28;20174;-83
2022/08/31 12:29:35;;;;;;;2.90;1.30;;;25.10;85.00;;;;;;5054260;28;20123;-81
2022/08/31 12:32:31;;;;;;;5.78;1.83;;;25.20;86.20;;;;;;5054682;28;20055;-82
2022/08/31 12:35:17;;;;;;;3.25;1.38;;;25.30;85.30;;;;;;5052085;28;20127;-82
2022/08/31 12:37:43;;;;;;;4.15;1.40;;;25.40;85.40;;;;;;5054784;28;20481;-82
2022/08/31 12:40:18;;;;;;;5.40;1.40;;;25.40;85.40;;;;;;5054530;28;20048;-81
2022/08/31 12:42:59;;;;;;;5.38;1.42;;;25.50;83.50;;;;;;5053448;28;20049;-81
2022/08/31 12:45:51;;;;;;;4.68;1.40;;;25.70;84.10;;;;;;5054348;28;20098;-82
2022/08/31 12:48:41;;;;;;;4.47;1.40;;;25.80;83.30;;;;;;5030656;28;20109;-82
2022/08/31 12:51:16;;;;;;;4.35;1.50;;;25.70;81.00;;;;;;5072687;28;20388;-82
2022/08/31 12:53:48;;;;;;;2.85;1.20;;;25.70;82.80;;;;;;5072763;28;20044;-82
2022/08/31 12:56:39;;;;;;;4.05;1.40;;;25.50;81.20;;;;;;5071055;28;20132;-82
2022/08/31 12:59:25;;;;;;;4.00;1.40;;;25.50;82.00;;;;;;5054463;28;20082;-81
2022/08/31 13:01:51;;;;;;;5.20;1.48;;;25.60;78.80;;;;;;5054639;28;20515;-82
2022/08/31 13:04:18;;;;;;;4.05;1.40;;;25.60;81.50;;;;;;5053250;28;20041;-82
2022/08/31 13:06:47;;;;;;;3.50;1.20;;;25.80;81.00;;;;;;5072129;28;20048;-81
2022/08/31 13:09:23;;;;;;;5.20;1.50;;;26.00;81.10;;;;;;5053487;28;20040;-82
2022/08/31 13:11:51;;;;;;;3.40;1.40;;;25.90;78.10;;;;;;5072188;28;20076;-82
2022/08/31 13:14:22;;;;;;;4.65;1.40;;;25.90;79.30;;;;;;5071672;28;20083;-82
2022/08/31 13:16:51;;;;;;;3.72;1.40;;;26.10;79.10;;;;;;5053551;28;20496;-81
2022/08/31 13:19:28;;;;;;;3.83;1.40;;;26.20;79.20;;;;;;5053766;28;20125;-82
2022/08/31 13:21:59;;;;;;;4.38;1.30;;;26.10;78.20;;;;;;5073630;28;20044;-82
2022/08/31 13:24:30;;;;;;;4.95;1.45;;;26.20;78.40;;;;;;5057129;28;20047;-81
2022/08/31 13:27:08;;;;;;;4.53;1.30;;;26.30;78.40;;;;;;5063920;28;20082;-81
2022/08/31 13:29:39;;;;;;;4.90;1.45;;;26.40;77.60;;;;;;5066224;28;20055;-81